Time;durP1;ratioP1;P1;durP2;ratioP2;P2;SDS_P1;SDS_P2;PMS_P1;PMS_P2;Temp;Humidity;BMP_temperature;BMP_pressure;BME280_temperature;BME280_humidity;BME280_pressure;Samples;Min_cycle;Max_cycle;Signal;HPM_P1;HPM_P2
2021/03/28 00:01:51;;;;;;;0.98;0.82;;;;;;;;;;5102272;28;20197;-55
2021/03/28 00:04:19;;;;;;;0.90;0.68;;;;;;;;;;5106431;27;20172;-55
2021/03/28 00:06:45;;;;;;;1.25;0.80;;;;;;;;;;5129811;27;20271;-53
2021/03/28 00:09:14;;;;;;;1.30;0.93;;;;;;;;;;5134946;27;20247;-53
2021/03/28 00:12:01;;;;;;;1.27;0.65;;;;;;;;;;5134362;28;20207;-55
2021/03/28 00:14:36;;;;;;;1.50;0.80;;;;;;;;;;5130913;28;20567;-55
2021/03/28 00:17:21;;;;;;;1.30;0.82;;;;;;;;;;5112710;28;20188;-55
2021/03/28 00:20:10;;;;;;;0.98;0.80;;;;;;;;;;5134729;28;20199;-55
2021/03/28 00:22:39;;;;;;;1.17;0.80;;;;;;;;;;5120946;28;20205;-55
2021/03/28 00:25:11;;;;;;;0.98;0.70;;;;;;;;;;5133796;28;20173;-55
2021/03/28 00:27:39;;;;;;;1.33;0.93;;;;;;;;;;5130072;28;20201;-55
2021/03/28 00:30:08;;;;;;;0.73;0.68;;;;;;;;;;5116427;28;20181;-55
2021/03/28 00:32:40;;;;;;;1.20;0.73;;;;;;;;;;5113489;28;20177;-55
2021/03/28 00:35:08;;;;;;;1.92;0.80;;;;;;;;;;5124093;28;20448;-55
2021/03/28 00:37:34;;;;;;;1.35;0.80;;;;;;;;;;5132386;28;20621;-55
2021/03/28 00:40:13;;;;;;;1.00;0.90;;;;;;;;;;5118745;28;20183;-55
2021/03/28 00:42:44;;;;;;;0.77;0.77;;;;;;;;;;5113641;28;20172;-55
2021/03/28 00:45:19;;;;;;;0.73;0.70;;;;;;;;;;5114141;28;20500;-55
2021/03/28 00:48:00;;;;;;;0.80;0.70;;;;;;;;;;5113965;28;20208;-55
2021/03/28 00:50:28;;;;;;;0.80;0.77;;;;;;;;;;5116335;28;20416;-55
2021/03/28 00:52:58;;;;;;;0.50;0.50;;;;;;;;;;5130323;27;20218;-55
2021/03/28 00:55:28;;;;;;;0.60;0.50;;;;;;;;;;5137703;27;20199;-55
2021/03/28 00:58:15;;;;;;;0.65;0.60;;;;;;;;;;5138085;27;20489;-55
2021/03/28 01:01:00;;;;;;;1.00;0.95;;;;;;;;;;5137669;27;20196;-55
2021/03/28 01:03:36;;;;;;;0.90;0.73;;;;;;;;;;5119792;27;20181;-55
2021/03/28 01:06:22;;;;;;;1.17;0.80;;;;;;;;;;5126965;27;20290;-55
2021/03/28 01:08:56;;;;;;;0.60;0.50;;;;;;;;;;5102551;27;20358;-53
2021/03/28 01:11:31;;;;;;;1.30;0.95;;;;;;;;;;5117195;27;20533;-55
2021/03/28 01:14:16;;;;;;;0.70;0.70;;;;;;;;;;5124207;27;20255;-55
2021/03/28 01:16:58;;;;;;;1.02;0.77;;;;;;;;;;5109388;27;20200;-55
2021/03/28 01:19:39;;;;;;;0.93;0.55;;;;;;;;;;5117028;28;20191;-55
2021/03/28 01:22:09;;;;;;;0.80;0.80;;;;;;;;;;5119589;27;20208;-55
2021/03/28 01:24:41;;;;;;;0.75;0.60;;;;;;;;;;5136591;27;20206;-55
2021/03/28 01:27:17;;;;;;;0.80;0.60;;;;;;;;;;5136151;27;20188;-55
2021/03/28 01:30:02;;;;;;;0.73;0.65;;;;;;;;;;5116990;28;20428;-55
2021/03/28 01:32:40;;;;;;;0.65;0.50;;;;;;;;;;5122578;27;20269;-55
2021/03/28 01:35:14;;;;;;;0.90;0.80;;;;;;;;;;5124623;27;20180;-55
2021/03/28 01:37:59;;;;;;;1.10;0.63;;;;;;;;;;5119031;27;20188;-55
2021/03/28 01:40:26;;;;;;;0.40;0.40;;;;;;;;;;5110790;27;20298;-55
2021/03/28 01:42:58;;;;;;;0.60;0.60;;;;;;;;;;5137513;27;20172;-55
2021/03/28 01:45:43;;;;;;;0.80;0.63;;;;;;;;;;5136474;27;20180;-55
2021/03/28 01:48:09;;;;;;;0.63;0.60;;;;;;;;;;5119603;27;20294;-55
2021/03/28 01:50:43;;;;;;;0.82;0.60;;;;;;;;;;5135204;27;20264;-55
2021/03/28 01:53:09;;;;;;;0.90;0.60;;;;;;;;;;5132998;27;20184;-55
2021/03/28 01:55:38;;;;;;;0.70;0.70;;;;;;;;;;5136518;27;20184;-55
2021/03/28 01:58:16;;;;;;;1.15;0.63;;;;;;;;;;5136945;27;20176;-55
2021/03/28 02:01:01;;;;;;;1.85;1.00;;;;;;;;;;5126012;27;20786;-54
2021/03/28 02:03:35;;;;;;;0.75;0.52;;;;;;;;;;5124404;27;20208;-54
2021/03/28 02:06:13;;;;;;;0.80;0.60;;;;;;;;;;5125243;27;20434;-55
2021/03/28 02:08:48;;;;;;;0.88;0.70;;;;;;;;;;5115747;28;20231;-55
2021/03/28 02:11:32;;;;;;;0.70;0.70;;;;;;;;;;5116403;28;20168;-55
2021/03/28 02:14:08;;;;;;;1.77;0.70;;;;;;;;;;5116803;27;20177;-55
2021/03/28 02:16:54;;;;;;;0.65;0.50;;;;;;;;;;5115916;28;20200;-55
2021/03/28 02:19:23;;;;;;;0.70;0.60;;;;;;;;;;5122349;27;20185;-55
2021/03/28 02:22:01;;;;;;;0.60;0.50;;;;;;;;;;5132247;27;20737;-55
2021/03/28 02:24:30;;;;;;;0.52;0.50;;;;;;;;;;5115348;28;20215;-55
2021/03/28 02:27:02;;;;;;;0.80;0.60;;;;;;;;;;5115219;28;20196;-55
2021/03/28 02:29:32;;;;;;;0.70;0.70;;;;;;;;;;5134661;27;20192;-55
2021/03/28 02:32:12;;;;;;;0.60;0.60;;;;;;;;;;5106410;28;20197;-55
2021/03/28 02:34:57;;;;;;;0.55;0.52;;;;;;;;;;5121494;27;20496;-55
2021/03/28 02:37:23;;;;;;;0.55;0.55;;;;;;;;;;5136006;27;20662;-55
2021/03/28 02:40:06;;;;;;;0.77;0.77;;;;;;;;;;5136384;27;20187;-53
2021/03/28 02:42:50;;;;;;;1.75;0.57;;;;;;;;;;5118691;27;20185;-55
2021/03/28 02:45:27;;;;;;;1.10;0.70;;;;;;;;;;5115514;28;20279;-55
2021/03/28 02:47:53;;;;;;;0.65;0.57;;;;;;;;;;5131883;27;20200;-55
2021/03/28 02:50:31;;;;;;;0.77;0.70;;;;;;;;;;5115471;28;20181;-55
2021/03/28 02:53:16;;;;;;;1.45;0.70;;;;;;;;;;5098086;28;20482;-55
2021/03/28 02:56:02;;;;;;;0.60;0.60;;;;;;;;;;5115974;27;20173;-55
2021/03/28 02:58:35;;;;;;;1.10;0.50;;;;;;;;;;5117457;27;20176;-55
2021/03/28 03:01:04;;;;;;;0.98;0.70;;;;;;;;;;5122854;27;20246;-55
2021/03/28 03:03:30;;;;;;;0.52;0.50;;;;;;;;;;5115133;28;20457;-55
2021/03/28 03:06:02;;;;;;;0.77;0.55;;;;;;;;;;5115015;28;20173;-55
2021/03/28 03:08:34;;;;;;;0.60;0.60;;;;;;;;;;5114980;28;20261;-55
2021/03/28 03:11:19;;;;;;;0.57;0.57;;;;;;;;;;5123514;27;20647;-55
2021/03/28 03:13:49;;;;;;;0.75;0.70;;;;;;;;;;5129991;27;20260;-55
2021/03/28 03:16:24;;;;;;;0.68;0.50;;;;;;;;;;5115050;28;20422;-55
2021/03/28 03:19:02;;;;;;;0.70;0.60;;;;;;;;;;5115359;28;20188;-55
2021/03/28 03:21:48;;;;;;;0.52;0.50;;;;;;;;;;5121112;27;20743;-55
2021/03/28 03:24:23;;;;;;;0.60;0.60;;;;;;;;;;5135171;27;20561;-55
2021/03/28 03:27:08;;;;;;;0.50;0.50;;;;;;;;;;5115367;28;20203;-55
2021/03/28 03:29:53;;;;;;;0.90;0.63;;;;;;;;;;5117416;27;20233;-55
2021/03/28 03:32:37;;;;;;;0.45;0.45;;;;;;;;;;5121449;27;20815;-55
2021/03/28 03:35:13;;;;;;;0.50;0.50;;;;;;;;;;5124485;27;20165;-55
2021/03/28 03:37:58;;;;;;;1.52;0.60;;;;;;;;;;5135260;27;20540;-55
2021/03/28 03:40:33;;;;;;;0.95;0.68;;;;;;;;;;5123403;27;20297;-55
2021/03/28 03:43:07;;;;;;;0.63;0.50;;;;;;;;;;5133883;27;20320;-55
2021/03/28 03:45:57;;;;;;;0.40;0.40;;;;;;;;;;5134423;27;20171;-55
2021/03/28 03:48:28;;;;;;;0.50;0.50;;;;;;;;;;5134975;27;20251;-55
2021/03/28 03:51:00;;;;;;;0.65;0.50;;;;;;;;;;5133689;27;20306;-55
2021/03/28 03:53:42;;;;;;;0.85;0.50;;;;;;;;;;5115359;27;20225;-55
2021/03/28 03:56:31;;;;;;;1.05;0.80;;;;;;;;;;5131504;27;20436;-55
2021/03/28 03:59:00;;;;;;;0.63;0.60;;;;;;;;;;5086955;27;20192;-55
2021/03/28 04:01:28;;;;;;;0.73;0.70;;;;;;;;;;5127344;27;20212;-55
2021/03/28 04:04:00;;;;;;;0.50;0.50;;;;;;;;;;5131451;27;20216;-55
2021/03/28 04:06:26;;;;;;;0.50;0.50;;;;;;;;;;5134182;27;20262;-55
2021/03/28 04:08:55;;;;;;;0.52;0.52;;;;;;;;;;5124487;27;20292;-55
2021/03/28 04:11:40;;;;;;;0.68;0.60;;;;;;;;;;5119885;28;20184;-54
2021/03/28 04:14:15;;;;;;;0.47;0.40;;;;;;;;;;5134496;28;20607;-54
2021/03/28 04:16:46;;;;;;;3.00;0.68;;;;;;;;;;5134572;28;20180;-54
2021/03/28 04:19:12;;;;;;;0.60;0.47;;;;;;;;;;5116422;28;20185;-54
2021/03/28 04:21:50;;;;;;;0.50;0.50;;;;;;;;;;5117042;28;20205;-54
2021/03/28 04:24:28;;;;;;;0.52;0.50;;;;;;;;;;5136543;27;20184;-54
2021/03/28 04:27:12;;;;;;;0.65;0.50;;;;;;;;;;5139005;27;20170;-54
2021/03/28 04:29:44;;;;;;;1.85;0.52;;;;;;;;;;5138580;27;20179;-55
2021/03/28 04:32:19;;;;;;;0.50;0.50;;;;;;;;;;5125762;27;20216;-55
2021/03/28 04:34:45;;;;;;;0.73;0.50;;;;;;;;;;5125291;27;20172;-55
2021/03/28 04:37:26;;;;;;;0.50;0.50;;;;;;;;;;5136106;27;20188;-55
2021/03/28 04:40:04;;;;;;;0.50;0.50;;;;;;;;;;5138808;27;20188;-55
2021/03/28 04:42:32;;;;;;;1.42;0.57;;;;;;;;;;5123079;27;20193;-54
2021/03/28 04:45:17;;;;;;;0.80;0.70;;;;;;;;;;5117246;28;20173;-55
2021/03/28 04:47:58;;;;;;;0.40;0.40;;;;;;;;;;5117933;28;20204;-55
2021/03/28 04:50:24;;;;;;;0.40;0.40;;;;;;;;;;5112625;27;20555;-55
2021/03/28 04:53:09;;;;;;;0.50;0.50;;;;;;;;;;5118620;27;20176;-55
2021/03/28 04:55:41;;;;;;;0.40;0.40;;;;;;;;;;5117206;28;20223;-55
2021/03/28 04:58:07;;;;;;;0.38;0.38;;;;;;;;;;5117636;28;20193;-55
2021/03/28 05:01:08;;;;;;;0.63;0.63;;;;;;;;;;5135770;27;20208;-55
2021/03/28 05:03:50;;;;;;;0.65;0.57;;;;;;;;;;5037936;28;20206;-55
2021/03/28 05:06:16;;;;;;;0.80;0.60;;;;;;;;;;5110952;28;20769;-55
2021/03/28 05:09:00;;;;;;;0.55;0.52;;;;;;;;;;5125346;27;20590;-55
2021/03/28 05:11:29;;;;;;;0.60;0.50;;;;;;;;;;5119387;27;20211;-55
2021/03/28 05:14:15;;;;;;;0.40;0.40;;;;;;;;;;5134017;27;20185;-55
2021/03/28 05:16:59;;;;;;;0.40;0.40;;;;;;;;;;5137368;27;20551;-55
2021/03/28 05:19:34;;;;;;;0.50;0.50;;;;;;;;;;5137673;27;20191;-55
2021/03/28 05:22:12;;;;;;;0.50;0.50;;;;;;;;;;5125881;27;20188;-55
2021/03/28 05:24:56;;;;;;;0.82;0.60;;;;;;;;;;5118413;27;20215;-55
2021/03/28 05:27:25;;;;;;;0.55;0.50;;;;;;;;;;5118046;27;20280;-55
2021/03/28 05:30:03;;;;;;;0.60;0.57;;;;;;;;;;5117292;28;20177;-55
2021/03/28 05:32:48;;;;;;;0.43;0.43;;;;;;;;;;5130662;27;20201;-55
2021/03/28 05:35:33;;;;;;;0.93;0.80;;;;;;;;;;5124584;27;20215;-55
2021/03/28 05:38:17;;;;;;;1.00;0.50;;;;;;;;;;5117164;28;20177;-55
2021/03/28 05:41:13;;;;;;;1.20;0.60;;;;;;;;;;5127438;27;20600;-55
2021/03/28 05:43:57;;;;;;;0.77;0.77;;;;;;;;;;5054228;28;20203;-55
2021/03/28 05:46:34;;;;;;;1.20;0.50;;;;;;;;;;5116400;28;20196;-55
2021/03/28 05:49:15;;;;;;;0.63;0.47;;;;;;;;;;5135969;27;20220;-55
2021/03/28 05:51:48;;;;;;;0.60;0.60;;;;;;;;;;5124714;27;20325;-55
2021/03/28 05:54:18;;;;;;;1.13;0.50;;;;;;;;;;5127950;27;20210;-54
2021/03/28 05:57:02;;;;;;;0.73;0.57;;;;;;;;;;5137126;27;20184;-54
2021/03/28 05:59:28;;;;;;;0.47;0.47;;;;;;;;;;5136921;27;20433;-54
2021/03/28 06:02:13;;;;;;;1.98;0.63;;;;;;;;;;5125803;27;20198;-54
2021/03/28 06:04:44;;;;;;;0.52;0.45;;;;;;;;;;5136352;27;20165;-54
2021/03/28 06:07:28;;;;;;;1.40;0.88;;;;;;;;;;5130137;27;20710;-54
2021/03/28 06:10:09;;;;;;;0.98;0.50;;;;;;;;;;5128306;27;20181;-55
2021/03/28 06:12:35;;;;;;;1.90;0.50;;;;;;;;;;5117102;27;20181;-55
2021/03/28 06:15:01;;;;;;;0.80;0.60;;;;;;;;;;5116853;27;20184;-55
2021/03/28 06:17:36;;;;;;;2.08;0.70;;;;;;;;;;5115750;28;20181;-55
2021/03/28 06:20:08;;;;;;;1.25;0.70;;;;;;;;;;5116503;28;20180;-55
2021/03/28 06:22:43;;;;;;;4.70;1.33;;;;;;;;;;5115931;27;20195;-55
2021/03/28 06:25:21;;;;;;;3.25;0.80;;;;;;;;;;5136310;27;20245;-55
2021/03/28 06:28:06;;;;;;;6.28;0.90;;;;;;;;;;5136682;27;20303;-55
2021/03/28 06:30:32;;;;;;;3.28;0.95;;;;;;;;;;5134502;27;20187;-55
2021/03/28 06:33:14;;;;;;;2.85;1.02;;;;;;;;;;5136405;27;20188;-55
2021/03/28 06:35:49;;;;;;;2.78;1.15;;;;;;;;;;5133972;27;20179;-55
2021/03/28 06:38:22;;;;;;;0.63;0.63;;;;;;;;;;5118834;27;20187;-55
2021/03/28 06:41:11;;;;;;;1.52;0.90;;;;;;;;;;5136479;27;20180;-56
2021/03/28 06:43:56;;;;;;;3.00;1.00;;;;;;;;;;5133454;27;20188;-57
2021/03/28 06:46:22;;;;;;;2.00;0.90;;;;;;;;;;5135301;27;20615;-54
2021/03/28 06:48:48;;;;;;;4.72;1.00;;;;;;;;;;5128550;27;20225;-54
2021/03/28 06:51:14;;;;;;;2.78;0.90;;;;;;;;;;5136322;27;20164;-54
2021/03/28 06:53:58;;;;;;;3.10;0.70;;;;;;;;;;5135973;27;20186;-55
2021/03/28 06:56:47;;;;;;;3.08;0.98;;;;;;;;;;5135677;27;20176;-55
2021/03/28 06:59:13;;;;;;;1.10;0.80;;;;;;;;;;5130691;27;20196;-56
2021/03/28 07:01:42;;;;;;;0.82;0.65;;;;;;;;;;5102024;27;20200;-56
2021/03/28 07:04:27;;;;;;;2.50;0.70;;;;;;;;;;5135837;27;20177;-56
2021/03/28 07:07:12;;;;;;;2.05;0.70;;;;;;;;;;5135780;27;20192;-57
2021/03/28 07:09:56;;;;;;;5.47;0.98;;;;;;;;;;5135212;27;20244;-49
2021/03/28 07:12:41;;;;;;;4.95;1.10;;;;;;;;;;5123980;27;20438;-50
2021/03/28 07:15:23;;;;;;;3.30;1.25;;;;;;;;;;5118140;27;20638;-50
2021/03/28 07:17:49;;;;;;;4.30;1.63;;;;;;;;;;5135745;27;20195;-48
2021/03/28 07:20:25;;;;;;;3.13;1.38;;;;;;;;;;5135761;27;20176;-49
2021/03/28 07:23:10;;;;;;;3.42;1.42;;;;;;;;;;5115518;28;20207;-49
2021/03/28 07:25:42;;;;;;;5.68;1.60;;;;;;;;;;5114390;28;20189;-49
2021/03/28 07:28:11;;;;;;;5.65;1.80;;;;;;;;;;5132349;27;20519;-49
2021/03/28 07:30:56;;;;;;;5.03;1.42;;;;;;;;;;5115703;27;20287;-52
2021/03/28 07:33:22;;;;;;;6.30;1.80;;;;;;;;;;5114693;28;20185;-53
2021/03/28 07:36:15;;;;;;;9.57;2.35;;;;;;;;;;5123009;27;20198;-49
2021/03/28 07:39:02;;;;;;;8.00;1.83;;;;;;;;;;5114554;28;20230;-49
2021/03/28 07:41:57;;;;;;;4.10;1.60;;;;;;;;;;5114655;28;20234;-49
2021/03/28 07:44:42;;;;;;;7.72;1.88;;;;;;;;;;5096780;28;20280;-52
2021/03/28 07:47:26;;;;;;;6.18;1.60;;;;;;;;;;5120819;27;20564;-51
2021/03/28 07:49:52;;;;;;;10.27;2.15;;;;;;;;;;5131773;27;20181;-52
2021/03/28 07:52:37;;;;;;;10.88;1.90;;;;;;;;;;5124242;27;20217;-52
2021/03/28 07:55:22;;;;;;;6.47;1.88;;;;;;;;;;5121610;27;20222;-52
2021/03/28 07:58:16;;;;;;;5.72;1.65;;;;;;;;;;5104280;28;20200;-52
2021/03/28 08:00:45;;;;;;;8.93;2.15;;;;;;;;;;5113174;28;20283;-52
2021/03/28 08:03:30;;;;;;;13.15;2.63;;;;;;;;;;5114715;28;20181;-52
2021/03/28 08:06:08;;;;;;;6.45;2.17;;;;;;;;;;5122175;27;20196;-52
2021/03/28 08:08:53;;;;;;;7.45;1.73;;;;;;;;;;5115837;27;20208;-52
2021/03/28 08:11:38;;;;;;;4.25;1.80;;;;;;;;;;5134061;27;20575;-52
2021/03/28 08:14:23;;;;;;;4.95;2.00;;;;;;;;;;5131699;28;20191;-52
2021/03/28 08:17:08;;;;;;;7.57;1.88;;;;;;;;;;5121540;28;20230;-52
2021/03/28 08:19:52;;;;;;;5.90;2.10;;;;;;;;;;5117673;28;20193;-52
2021/03/28 08:22:27;;;;;;;7.90;2.10;;;;;;;;;;5116960;28;20513;-52
2021/03/28 08:24:53;;;;;;;8.02;1.65;;;;;;;;;;5124960;28;20263;-52
2021/03/28 08:27:38;;;;;;;4.15;1.40;;;;;;;;;;5117024;28;20283;-52
2021/03/28 08:30:15;;;;;;;6.35;1.95;;;;;;;;;;5133108;28;20208;-52
2021/03/28 08:32:53;;;;;;;5.82;1.65;;;;;;;;;;5115023;28;20237;-52
2021/03/28 08:35:26;;;;;;;3.28;1.45;;;;;;;;;;5119484;28;20176;-52
2021/03/28 08:38:28;;;;;;;4.40;1.55;;;;;;;;;;5115158;28;20189;-52
2021/03/28 08:41:12;;;;;;;4.40;1.42;;;;;;;;;;5024422;28;20244;-52
2021/03/28 08:43:47;;;;;;;3.97;1.55;;;;;;;;;;5107332;28;20208;-53
2021/03/28 08:46:13;;;;;;;3.75;1.20;;;;;;;;;;5129646;28;20288;-52
2021/03/28 08:49:00;;;;;;;4.20;1.70;;;;;;;;;;5114877;28;20989;-51
2021/03/28 08:51:41;;;;;;;6.18;1.92;;;;;;;;;;5113698;28;20173;-52
2021/03/28 08:54:11;;;;;;;3.95;1.38;;;;;;;;;;5113670;28;20201;-52
2021/03/28 08:56:58;;;;;;;3.08;1.42;;;;;;;;;;5117916;28;20256;-52
2021/03/28 08:59:43;;;;;;;2.00;1.10;;;;;;;;;;5133883;28;20195;-52
2021/03/28 09:02:09;;;;;;;3.60;1.73;;;;;;;;;;5132441;28;20193;-52
2021/03/28 09:04:37;;;;;;;3.50;1.60;;;;;;;;;;5126771;28;20180;-52
2021/03/28 09:07:15;;;;;;;3.03;1.42;;;;;;;;;;5122850;28;20696;-52
2021/03/28 09:09:48;;;;;;;3.38;1.38;;;;;;;;;;5115873;28;20237;-52
2021/03/28 09:12:38;;;;;;;3.20;1.60;;;;;;;;;;5117973;27;20447;-53
2021/03/28 09:15:10;;;;;;;4.78;1.70;;;;;;;;;;5133039;27;20204;-52
2021/03/28 09:17:52;;;;;;;3.65;1.50;;;;;;;;;;5117213;28;20185;-53
2021/03/28 09:20:27;;;;;;;3.97;1.50;;;;;;;;;;5120808;27;20180;-52
2021/03/28 09:22:53;;;;;;;2.63;1.33;;;;;;;;;;5119890;27;20265;-52
2021/03/28 09:25:26;;;;;;;2.72;1.30;;;;;;;;;;5116505;27;20227;-52
2021/03/28 09:28:11;;;;;;;3.65;1.52;;;;;;;;;;5129919;27;20656;-52
2021/03/28 09:30:57;;;;;;;4.30;1.27;;;;;;;;;;5132949;27;20185;-52
2021/03/28 09:33:26;;;;;;;5.18;1.65;;;;;;;;;;5106432;28;20456;-52
2021/03/28 09:36:11;;;;;;;2.38;1.27;;;;;;;;;;5133624;27;20176;-52
2021/03/28 09:38:48;;;;;;;2.92;1.50;;;;;;;;;;5132495;27;20567;-52
2021/03/28 09:41:32;;;;;;;5.35;1.77;;;;;;;;;;5116964;28;20172;-52
2021/03/28 09:44:02;;;;;;;4.10;1.30;;;;;;;;;;5119158;27;20209;-52
2021/03/28 09:46:45;;;;;;;4.30;1.52;;;;;;;;;;5136769;27;20192;-52
2021/03/28 09:49:18;;;;;;;2.17;1.30;;;;;;;;;;5137118;27;20219;-52
2021/03/28 09:52:02;;;;;;;3.08;1.52;;;;;;;;;;5137446;27;20427;-52
2021/03/28 09:54:47;;;;;;;3.20;1.30;;;;;;;;;;5128809;27;20259;-52
2021/03/28 09:57:13;;;;;;;2.05;1.17;;;;;;;;;;5132187;27;20181;-52
2021/03/28 09:59:52;;;;;;;2.03;1.20;;;;;;;;;;5127774;27;20207;-52
2021/03/28 10:02:18;;;;;;;1.95;1.30;;;;;;;;;;5116507;28;20188;-52
2021/03/28 10:05:07;;;;;;;4.15;1.95;;;;;;;;;;5133247;27;20546;-52
2021/03/28 10:07:39;;;;;;;4.75;1.50;;;;;;;;;;5129189;27;20200;-52
2021/03/28 10:10:12;;;;;;;4.03;1.63;;;;;;;;;;5119883;27;20222;-52
2021/03/28 10:12:53;;;;;;;3.85;1.73;;;;;;;;;;5126648;27;20915;-52
2021/03/28 10:15:20;;;;;;;3.65;1.40;;;;;;;;;;5136061;27;20183;-52
2021/03/28 10:17:51;;;;;;;2.22;1.35;;;;;;;;;;5136012;27;20194;-52
2021/03/28 10:20:21;;;;;;;3.08;1.40;;;;;;;;;;5136251;27;20219;-52
2021/03/28 10:22:50;;;;;;;4.43;1.55;;;;;;;;;;5135961;27;20183;-52
2021/03/28 10:25:25;;;;;;;2.80;1.40;;;;;;;;;;5131151;27;20184;-52
2021/03/28 10:27:54;;;;;;;3.20;1.23;;;;;;;;;;5130707;27;20192;-52
2021/03/28 10:30:30;;;;;;;2.58;1.20;;;;;;;;;;5122664;27;20187;-52
2021/03/28 10:33:03;;;;;;;2.28;1.35;;;;;;;;;;5124114;27;20183;-53
2021/03/28 10:35:35;;;;;;;3.15;1.90;;;;;;;;;;5118404;27;20176;-52
2021/03/28 10:38:01;;;;;;;3.58;1.40;;;;;;;;;;5122653;27;20188;-52
2021/03/28 10:40:33;;;;;;;2.60;1.35;;;;;;;;;;5116733;27;20181;-52
2021/03/28 10:43:17;;;;;;;3.50;1.45;;;;;;;;;;5121489;27;20298;-52
2021/03/28 10:45:46;;;;;;;6.57;2.15;;;;;;;;;;5135434;27;20550;-52
2021/03/28 10:48:22;;;;;;;6.05;2.03;;;;;;;;;;5136349;27;20283;-52
2021/03/28 10:51:07;;;;;;;4.63;2.47;;;;;;;;;;5136380;27;20172;-52
2021/03/28 10:53:56;;;;;;;6.07;2.58;;;;;;;;;;5134155;27;20192;-51
2021/03/28 10:56:25;;;;;;;7.03;3.13;;;;;;;;;;5113001;27;20197;-51
2021/03/28 10:58:51;;;;;;;14.52;3.38;;;;;;;;;;5119221;27;20520;-52
2021/03/28 11:01:36;;;;;;;10.55;3.63;;;;;;;;;;5115479;28;20260;-52
2021/03/28 11:04:22;;;;;;;7.75;3.47;;;;;;;;;;5124690;27;20203;-52
2021/03/28 11:06:57;;;;;;;10.38;3.67;;;;;;;;;;5115760;27;20242;-52
2021/03/28 11:09:23;;;;;;;7.75;3.05;;;;;;;;;;5116191;27;20451;-52
2021/03/28 11:12:01;;;;;;;7.00;2.85;;;;;;;;;;5116799;27;20519;-52
2021/03/28 11:14:46;;;;;;;11.27;3.65;;;;;;;;;;5115241;27;20209;-52
2021/03/28 11:17:22;;;;;;;10.10;3.83;;;;;;;;;;5134002;27;20176;-52
2021/03/28 11:20:02;;;;;;;13.57;3.38;;;;;;;;;;5122680;27;20200;-52
2021/03/28 11:22:41;;;;;;;13.70;3.65;;;;;;;;;;5114367;27;20176;-52
2021/03/28 11:25:12;;;;;;;15.27;3.72;;;;;;;;;;5116025;27;20192;-52
2021/03/28 11:27:54;;;;;;;13.85;3.92;;;;;;;;;;5120963;27;20204;-52
2021/03/28 11:30:26;;;;;;;11.80;3.88;;;;;;;;;;5122205;27;20181;-52
2021/03/28 11:32:52;;;;;;;9.85;3.22;;;;;;;;;;5125370;27;20176;-52
2021/03/28 11:35:24;;;;;;;11.77;3.67;;;;;;;;;;5128051;27;20177;-52
2021/03/28 11:37:50;;;;;;;12.13;3.60;;;;;;;;;;5123402;27;20195;-52
2021/03/28 11:40:31;;;;;;;10.95;3.30;;;;;;;;;;5134923;27;20271;-52
2021/03/28 11:43:04;;;;;;;10.77;3.20;;;;;;;;;;5135416;27;20744;-52
2021/03/28 11:45:33;;;;;;;9.55;3.30;;;;;;;;;;5134511;27;20185;-52
2021/03/28 11:47:59;;;;;;;7.20;3.00;;;;;;;;;;5118369;27;20235;-52
2021/03/28 11:50:33;;;;;;;6.28;3.03;;;;;;;;;;5129624;27;20212;-52
2021/03/28 11:52:59;;;;;;;9.15;3.10;;;;;;;;;;5115079;28;20181;-52
2021/03/28 11:55:25;;;;;;;7.07;2.67;;;;;;;;;;5113816;28;20191;-52
2021/03/28 11:58:27;;;;;;;7.97;2.85;;;;;;;;;;5097074;28;20226;-52
2021/03/28 12:01:00;;;;;;;8.57;2.80;;;;;;;;;;5049857;28;20198;-53
2021/03/28 12:03:28;;;;;;;6.93;2.60;;;;;;;;;;5105614;27;20508;-52
2021/03/28 12:05:57;;;;;;;5.78;2.47;;;;;;;;;;5114216;28;20260;-52
2021/03/28 12:08:25;;;;;;;6.50;2.75;;;;;;;;;;5113904;28;20205;-52
2021/03/28 12:10:52;;;;;;;7.82;3.13;;;;;;;;;;5096302;28;20619;-52
2021/03/28 12:13:44;;;;;;;8.20;2.92;;;;;;;;;;5133082;27;20180;-52
2021/03/28 12:16:11;;;;;;;10.18;2.95;;;;;;;;;;5126774;28;20255;-52
2021/03/28 12:18:42;;;;;;;6.10;2.55;;;;;;;;;;5123592;28;20226;-52
2021/03/28 12:21:08;;;;;;;6.78;2.55;;;;;;;;;;5114893;28;20201;-52
2021/03/28 12:23:49;;;;;;;6.30;2.65;;;;;;;;;;5119794;28;20181;-52
2021/03/28 12:26:25;;;;;;;4.10;2.58;;;;;;;;;;5118274;28;20512;-52
2021/03/28 12:28:51;;;;;;;5.10;2.58;;;;;;;;;;5122085;28;20621;-52
2021/03/28 12:31:29;;;;;;;5.30;2.28;;;;;;;;;;5119415;28;20184;-52
2021/03/28 12:34:08;;;;;;;4.55;2.05;;;;;;;;;;5102248;28;20452;-53
2021/03/28 12:36:53;;;;;;;5.75;2.33;;;;;;;;;;5118444;28;20177;-52
2021/03/28 12:39:28;;;;;;;5.88;2.40;;;;;;;;;;5121030;28;20211;-52
2021/03/28 12:42:13;;;;;;;6.05;2.40;;;;;;;;;;5134086;28;20199;-52
2021/03/28 12:44:43;;;;;;;4.47;2.05;;;;;;;;;;5135118;27;20192;-52
2021/03/28 12:47:18;;;;;;;4.63;2.10;;;;;;;;;;5136902;27;20427;-52
2021/03/28 12:49:44;;;;;;;5.43;2.15;;;;;;;;;;5137738;27;20428;-52
2021/03/28 12:52:13;;;;;;;3.72;2.00;;;;;;;;;;5135004;27;20184;-52
2021/03/28 12:54:54;;;;;;;2.95;1.63;;;;;;;;;;5134246;27;20181;-52
2021/03/28 12:57:37;;;;;;;5.53;2.05;;;;;;;;;;5121669;27;20207;-52
2021/03/28 13:00:13;;;;;;;4.15;1.83;;;;;;;;;;5136162;27;20176;-52
2021/03/28 13:02:39;;;;;;;4.93;1.75;;;;;;;;;;5137669;27;20207;-52
2021/03/28 13:05:19;;;;;;;4.50;1.80;;;;;;;;;;5117115;28;20177;-52
2021/03/28 13:07:50;;;;;;;5.80;2.20;;;;;;;;;;5118716;27;20239;-52
2021/03/28 13:10:22;;;;;;;6.93;1.85;;;;;;;;;;5118455;27;21551;-53
2021/03/28 13:12:57;;;;;;;7.57;2.25;;;;;;;;;;5124798;27;20459;-52
2021/03/28 13:15:23;;;;;;;5.65;2.53;;;;;;;;;;5123332;27;20263;-52
2021/03/28 13:18:01;;;;;;;8.02;2.42;;;;;;;;;;5138027;27;20177;-52
2021/03/28 13:20:38;;;;;;;8.02;2.92;;;;;;;;;;5137878;27;20188;-52
2021/03/28 13:23:13;;;;;;;7.15;2.53;;;;;;;;;;5118630;27;20191;-52
2021/03/28 13:25:39;;;;;;;11.68;3.70;;;;;;;;;;5131347;27;20184;-52
2021/03/28 13:28:11;;;;;;;23.83;5.20;;;;;;;;;;5124635;27;20200;-52
2021/03/28 13:30:39;;;;;;;49.10;11.73;;;;;;;;;;5118342;27;20624;-52
2021/03/28 13:33:27;;;;;;;48.88;13.75;;;;;;;;;;5121283;27;20654;-52
2021/03/28 13:35:55;;;;;;;73.47;18.55;;;;;;;;;;5115447;27;20451;-52
2021/03/28 13:38:27;;;;;;;84.55;20.30;;;;;;;;;;5137096;27;20385;-52
2021/03/28 13:40:55;;;;;;;86.88;19.83;;;;;;;;;;5134536;27;20180;-52
2021/03/28 13:43:23;;;;;;;77.43;21.27;;;;;;;;;;5137229;27;20259;-52
2021/03/28 13:45:51;;;;;;;92.88;23.00;;;;;;;;;;5119196;27;20187;-52
2021/03/28 13:48:17;;;;;;;86.97;21.55;;;;;;;;;;5137360;27;20437;-52
2021/03/28 13:51:01;;;;;;;80.90;23.13;;;;;;;;;;5136922;27;20455;-52
2021/03/28 13:53:27;;;;;;;82.78;22.25;;;;;;;;;;5116629;28;20181;-52
2021/03/28 13:56:05;;;;;;;79.43;20.30;;;;;;;;;;5116656;27;20173;-52
2021/03/28 13:58:36;;;;;;;73.15;21.65;;;;;;;;;;5116432;27;20262;-52
2021/03/28 14:01:21;;;;;;;93.72;21.40;;;;;;;;;;5116447;27;20181;-52
2021/03/28 14:03:48;;;;;;;73.40;19.15;;;;;;;;;;5125464;27;20188;-52
2021/03/28 14:06:20;;;;;;;72.72;20.83;;;;;;;;;;5134954;27;20461;-52
2021/03/28 14:08:46;;;;;;;67.15;19.48;;;;;;;;;;5137020;27;20283;-52
2021/03/28 14:11:26;;;;;;;77.00;20.00;;;;;;;;;;5137153;27;20177;-52
2021/03/28 14:14:06;;;;;;;60.88;18.13;;;;;;;;;;5134863;27;20215;-52
2021/03/28 14:16:38;;;;;;;62.95;17.70;;;;;;;;;;5120388;27;20513;-52
2021/03/28 14:19:10;;;;;;;52.35;15.60;;;;;;;;;;5116442;28;20173;-52
2021/03/28 14:21:38;;;;;;;57.40;15.90;;;;;;;;;;5115846;28;20208;-51
2021/03/28 14:24:07;;;;;;;48.38;16.13;;;;;;;;;;5116791;27;20192;-52
2021/03/28 14:26:39;;;;;;;48.35;16.02;;;;;;;;;;5127257;27;20440;-52
2021/03/28 14:29:25;;;;;;;47.70;15.98;;;;;;;;;;5117484;27;20288;-52
2021/03/28 14:32:04;;;;;;;51.85;15.65;;;;;;;;;;5116166;28;20220;-52
2021/03/28 14:34:42;;;;;;;40.38;13.98;;;;;;;;;;5120031;27;20214;-52
2021/03/28 14:37:27;;;;;;;47.22;15.18;;;;;;;;;;5136589;27;20551;-52
2021/03/28 14:40:01;;;;;;;36.53;13.45;;;;;;;;;;5135875;27;20180;-52
2021/03/28 14:42:28;;;;;;;40.28;12.75;;;;;;;;;;5135858;27;20243;-52
2021/03/28 14:44:54;;;;;;;38.97;13.18;;;;;;;;;;5126454;27;20639;-52
2021/03/28 14:47:49;;;;;;;37.10;13.40;;;;;;;;;;5115186;28;20170;-52
2021/03/28 14:50:24;;;;;;;36.67;12.90;;;;;;;;;;5026280;28;20196;-52
2021/03/28 14:52:56;;;;;;;34.50;12.10;;;;;;;;;;5131468;27;20179;-52
2021/03/28 14:55:35;;;;;;;43.15;13.98;;;;;;;;;;5135053;27;20187;-52
2021/03/28 14:58:19;;;;;;;32.40;12.45;;;;;;;;;;5136227;27;20180;-52
2021/03/28 15:00:52;;;;;;;35.22;11.35;;;;;;;;;;5135252;27;20176;-52
2021/03/28 15:03:18;;;;;;;29.77;11.65;;;;;;;;;;5118096;27;20189;-52
2021/03/28 15:05:54;;;;;;;29.17;11.32;;;;;;;;;;5114417;28;20233;-52
2021/03/28 15:08:20;;;;;;;26.55;11.32;;;;;;;;;;5113809;28;20204;-52
2021/03/28 15:10:59;;;;;;;28.98;11.18;;;;;;;;;;5115274;28;20169;-52
2021/03/28 15:13:43;;;;;;;26.48;10.25;;;;;;;;;;5117852;27;20176;-52
2021/03/28 15:16:09;;;;;;;27.00;10.50;;;;;;;;;;5135112;27;20199;-52
2021/03/28 15:18:44;;;;;;;27.23;10.82;;;;;;;;;;5133811;27;20180;-52
2021/03/28 15:21:13;;;;;;;27.15;10.20;;;;;;;;;;5135970;27;20176;-52
2021/03/28 15:23:39;;;;;;;26.13;10.05;;;;;;;;;;5135531;27;20179;-52
2021/03/28 15:26:23;;;;;;;28.33;10.65;;;;;;;;;;5127318;27;20177;-52
2021/03/28 15:28:50;;;;;;;28.63;10.27;;;;;;;;;;5115288;28;20197;-52
2021/03/28 15:31:26;;;;;;;24.30;9.75;;;;;;;;;;5115069;28;20564;-52